Time;durP1;ratioP1;P1;durP2;ratioP2;P2;SDS_P1;SDS_P2;PMS_P1;PMS_P2;Temp;Humidity;BMP_temperature;BMP_pressure;BME280_temperature;BME280_humidity;BME280_pressure;Samples;Min_cycle;Max_cycle;Signal;HPM_P1;HPM_P2
2023/05/17 00:02:02;;;;;;;26.83;4.15;;;10.50;99.90;;;;;;5088660;28;20178;-85
2023/05/17 00:04:28;;;;;;;25.25;4.05;;;10.50;99.90;;;;;;5054983;28;20255;-83
2023/05/17 00:06:54;;;;;;;26.92;4.05;;;10.50;99.90;;;;;;5089831;28;20232;-84
2023/05/17 00:09:19;;;;;;;26.60;4.78;;;10.50;99.90;;;;;;5091236;28;20233;-84
2023/05/17 00:11:45;;;;;;;29.50;4.43;;;10.50;99.90;;;;;;5091616;28;20178;-83
2023/05/17 00:14:11;;;;;;;24.17;4.20;;;10.50;99.90;;;;;;5087122;28;20239;-83
2023/05/17 00:16:37;;;;;;;25.48;3.67;;;10.50;99.90;;;;;;5079008;28;20196;-84
2023/05/17 00:19:03;;;;;;;25.17;3.60;;;10.50;99.90;;;;;;5073155;28;20178;-86
2023/05/17 00:21:28;;;;;;;24.52;3.60;;;10.50;99.90;;;;;;5056038;28;20686;-84
2023/05/17 00:23:54;;;;;;;22.65;3.35;;;10.50;99.90;;;;;;5091340;28;20258;-84
2023/05/17 00:26:20;;;;;;;23.58;4.00;;;10.50;99.90;;;;;;5073211;28;20190;-84
2023/05/17 00:28:46;;;;;;;24.33;3.65;;;10.50;99.90;;;;;;5073079;28;20219;-85
2023/05/17 00:31:13;;;;;;;21.50;3.90;;;10.50;99.90;;;;;;5074180;28;20599;-85
2023/05/17 00:33:39;;;;;;;25.70;4.13;;;10.40;99.90;;;;;;5074704;28;20226;-84
2023/05/17 00:36:05;;;;;;;16.52;3.33;;;10.40;99.90;;;;;;5050089;28;20189;-83
2023/05/17 00:38:30;;;;;;;23.50;3.72;;;10.40;99.90;;;;;;5082124;28;20185;-85
2023/05/17 00:40:56;;;;;;;28.27;4.00;;;10.30;99.90;;;;;;5090621;28;20654;-84
2023/05/17 00:43:24;;;;;;;25.00;3.90;;;10.30;99.90;;;;;;5085374;28;20190;-84
2023/05/17 00:45:51;;;;;;;31.77;3.83;;;10.30;99.90;;;;;;5057131;28;20181;-84
2023/05/17 00:48:19;;;;;;;31.17;4.10;;;10.30;99.90;;;;;;5071625;28;20209;-85
2023/05/17 00:50:46;;;;;;;24.50;3.70;;;10.30;99.90;;;;;;5051170;28;20566;-84
2023/05/17 00:53:15;;;;;;;18.98;3.70;;;10.20;99.90;;;;;;5067125;28;20179;-84
2023/05/17 00:55:44;;;;;;;26.15;3.90;;;10.30;99.90;;;;;;5067289;28;20546;-82
2023/05/17 00:58:13;;;;;;;23.88;4.50;;;10.30;99.90;;;;;;5070384;28;20193;-84
2023/05/17 01:00:40;;;;;;;23.65;4.30;;;10.30;99.90;;;;;;5073961;28;20196;-85
2023/05/17 01:03:06;;;;;;;32.50;4.35;;;10.30;99.90;;;;;;5071621;28;20189;-85
2023/05/17 01:05:32;;;;;;;29.40;3.80;;;10.30;99.90;;;;;;5074464;28;20182;-83
2023/05/17 01:07:57;;;;;;;22.80;3.95;;;10.30;99.90;;;;;;5086256;28;20237;-82
2023/05/17 01:10:33;;;;;;;28.15;4.03;;;10.30;99.90;;;;;;5069959;28;20217;-82
2023/05/17 01:13:25;;;;;;;17.40;3.22;;;10.30;99.90;;;;;;5054752;28;20189;-83
2023/05/17 01:16:12;;;;;;;26.05;3.38;;;10.30;99.90;;;;;;5077147;28;20217;-84
2023/05/17 01:18:55;;;;;;;24.67;3.15;;;10.30;99.90;;;;;;5069967;28;20189;-82
2023/05/17 01:21:56;;;;;;;24.08;3.45;;;10.30;99.90;;;;;;5072316;28;20355;-84
2023/05/17 01:24:27;;;;;;;22.98;3.65;;;10.30;99.90;;;;;;5070336;28;20188;-82
2023/05/17 01:26:53;;;;;;;23.13;3.55;;;10.30;99.90;;;;;;5065158;28;20221;-83
2023/05/17 01:29:24;;;;;;;18.70;3.10;;;10.30;99.90;;;;;;5078558;28;20204;-85
2023/05/17 01:31:51;;;;;;;19.65;3.45;;;10.20;99.90;;;;;;5092401;28;20186;-83
2023/05/17 01:34:29;;;;;;;21.52;3.50;;;10.20;99.90;;;;;;5095408;28;20263;-83
2023/05/17 01:36:56;;;;;;;16.38;3.03;;;10.20;99.90;;;;;;5076492;28;20606;-85
2023/05/17 01:39:22;;;;;;;16.05;3.08;;;10.20;99.90;;;;;;5042203;28;20174;-83
2023/05/17 01:42:12;;;;;;;19.15;2.92;;;10.20;99.90;;;;;;5089462;28;20193;-83
2023/05/17 01:44:41;;;;;;;22.40;3.05;;;10.20;99.90;;;;;;5067171;28;20206;-83
2023/05/17 01:47:18;;;;;;;15.38;2.45;;;10.20;99.90;;;;;;5085086;28;20191;-83
2023/05/17 01:49:51;;;;;;;14.90;2.45;;;10.10;99.90;;;;;;5071454;28;20181;-85
2023/05/17 01:52:54;;;;;;;18.52;2.90;;;10.20;99.90;;;;;;5073263;28;20182;-84
2023/05/17 01:55:41;;;;;;;20.13;2.85;;;10.20;99.90;;;;;;5085519;28;20188;-85
2023/05/17 01:58:09;;;;;;;13.32;2.58;;;10.20;99.90;;;;;;5085299;28;20194;-85
2023/05/17 02:00:37;;;;;;;14.40;2.92;;;10.20;99.90;;;;;;5090068;28;20216;-84
2023/05/17 02:03:03;;;;;;;17.38;2.78;;;10.10;99.90;;;;;;5091562;28;20658;-84
2023/05/17 02:05:29;;;;;;;16.02;2.60;;;10.10;99.90;;;;;;5059483;28;20186;-85
2023/05/17 02:07:55;;;;;;;15.88;2.30;;;10.10;99.90;;;;;;5075428;28;20201;-84
2023/05/17 02:10:21;;;;;;;16.98;2.35;;;10.00;99.90;;;;;;5075140;28;20182;-84
2023/05/17 02:12:47;;;;;;;14.48;2.58;;;10.00;99.90;;;;;;5075057;28;20319;-84
2023/05/17 02:15:13;;;;;;;19.40;3.03;;;9.90;99.90;;;;;;5073799;28;20275;-85
2023/05/17 02:17:41;;;;;;;15.70;2.33;;;9.90;99.90;;;;;;5071923;28;20185;-84
2023/05/17 02:20:08;;;;;;;11.90;2.17;;;9.90;99.90;;;;;;5071791;28;20208;-84
2023/05/17 02:22:34;;;;;;;16.38;2.33;;;9.80;99.90;;;;;;5075183;28;20178;-84
2023/05/17 02:25:00;;;;;;;19.60;2.75;;;9.70;99.90;;;;;;5083922;28;20178;-84
2023/05/17 02:27:26;;;;;;;16.50;2.50;;;9.70;99.90;;;;;;5075350;28;20297;-83
2023/05/17 02:29:52;;;;;;;13.80;2.80;;;9.70;99.90;;;;;;5053826;28;20284;-85
2023/05/17 02:32:19;;;;;;;12.98;2.40;;;9.70;99.90;;;;;;5090825;28;20600;-84
2023/05/17 02:34:45;;;;;;;19.65;2.40;;;9.60;99.90;;;;;;5091878;28;20226;-85
2023/05/17 02:37:10;;;;;;;14.85;2.33;;;9.70;99.90;;;;;;5071253;28;20210;-85
2023/05/17 02:39:36;;;;;;;14.82;2.42;;;9.70;99.90;;;;;;5071542;28;20185;-84
2023/05/17 02:42:02;;;;;;;22.10;2.92;;;9.60;99.90;;;;;;5090070;28;20268;-84
2023/05/17 02:44:28;;;;;;;15.55;2.80;;;9.70;99.90;;;;;;5074281;28;20182;-84
2023/05/17 02:46:54;;;;;;;13.07;2.40;;;9.60;99.90;;;;;;5089501;28;20225;-84
2023/05/17 02:49:19;;;;;;;16.13;2.85;;;9.60;99.90;;;;;;5091399;28;20196;-83
2023/05/17 02:51:45;;;;;;;17.25;2.72;;;9.60;99.90;;;;;;5049950;28;20235;-85
2023/05/17 02:54:11;;;;;;;16.40;2.63;;;9.60;99.90;;;;;;5056643;28;20185;-84
2023/05/17 02:56:36;;;;;;;16.42;3.08;;;9.60;99.90;;;;;;5074409;28;20186;-84
2023/05/17 02:59:02;;;;;;;16.38;2.60;;;9.60;99.90;;;;;;5073296;28;20193;-82
2023/05/17 03:01:29;;;;;;;17.13;2.35;;;9.60;99.90;;;;;;5070883;28;20189;-85
2023/05/17 03:03:55;;;;;;;17.23;2.88;;;9.60;99.90;;;;;;5055880;28;20186;-85
2023/05/17 03:06:21;;;;;;;16.00;2.47;;;9.60;99.90;;;;;;5074215;28;20190;-83
2023/05/17 03:08:49;;;;;;;13.38;2.33;;;9.60;99.90;;;;;;5090731;28;20216;-84
2023/05/17 03:11:15;;;;;;;17.05;2.50;;;9.60;99.90;;;;;;5024740;28;20190;-83
2023/05/17 03:13:41;;;;;;;18.52;2.63;;;9.60;99.90;;;;;;5041571;28;20632;-85
2023/05/17 03:16:08;;;;;;;17.42;2.75;;;9.60;99.90;;;;;;5037588;28;20212;-86
2023/05/17 03:18:34;;;;;;;15.30;2.60;;;9.60;99.90;;;;;;5072572;28;20194;-84
2023/05/17 03:21:01;;;;;;;19.73;2.67;;;9.50;99.90;;;;;;5092042;28;20182;-83
2023/05/17 03:23:27;;;;;;;17.02;2.83;;;9.60;99.90;;;;;;5075371;28;20582;-83
2023/05/17 03:25:57;;;;;;;17.40;2.53;;;9.50;99.90;;;;;;5055806;28;20232;-84
2023/05/17 03:28:25;;;;;;;17.40;2.45;;;9.60;99.90;;;;;;5090256;28;20218;-83
2023/05/17 03:30:51;;;;;;;21.40;2.38;;;9.50;99.90;;;;;;5063250;28;20615;-83
2023/05/17 03:33:17;;;;;;;13.88;2.20;;;9.50;99.90;;;;;;5075247;28;20233;-83
2023/05/17 03:35:45;;;;;;;15.65;2.20;;;9.50;99.90;;;;;;5075763;28;20186;-84
2023/05/17 03:38:12;;;;;;;13.23;2.80;;;9.50;99.90;;;;;;5067039;28;20235;-84
2023/05/17 03:40:38;;;;;;;12.43;2.25;;;9.50;99.90;;;;;;5074273;28;20193;-83
2023/05/17 03:43:04;;;;;;;14.68;2.53;;;9.50;99.90;;;;;;5075154;28;20186;-86
2023/05/17 03:45:31;;;;;;;14.93;2.33;;;9.50;99.90;;;;;;5064918;28;20214;-84
2023/05/17 03:47:57;;;;;;;13.00;1.98;;;9.50;99.90;;;;;;5087351;28;20626;-83
2023/05/17 03:50:24;;;;;;;8.60;1.88;;;9.50;99.90;;;;;;5041058;28;20587;-84
2023/05/17 03:52:50;;;;;;;15.00;2.65;;;9.50;99.90;;;;;;5058513;28;20182;-83
2023/05/17 03:55:17;;;;;;;14.63;2.05;;;9.40;99.90;;;;;;5073327;28;20268;-84
2023/05/17 03:57:43;;;;;;;10.73;2.08;;;9.40;99.90;;;;;;5048491;28;20286;-84
2023/05/17 04:00:11;;;;;;;13.82;2.17;;;9.50;99.90;;;;;;5043380;28;20252;-84
2023/05/17 04:02:40;;;;;;;12.80;2.28;;;9.50;99.90;;;;;;5059624;28;20182;-84
2023/05/17 04:05:07;;;;;;;16.70;1.90;;;9.50;99.90;;;;;;5050035;28;20182;-84
2023/05/17 04:07:33;;;;;;;12.60;2.30;;;9.50;99.90;;;;;;5054133;28;20210;-84
2023/05/17 04:10:01;;;;;;;14.23;2.20;;;9.40;99.90;;;;;;5069569;28;20686;-84
2023/05/17 04:12:28;;;;;;;16.00;2.22;;;9.40;99.90;;;;;;5054993;28;20196;-84
2023/05/17 04:14:53;;;;;;;12.98;1.95;;;9.50;99.90;;;;;;5033747;28;20183;-85
2023/05/17 04:17:19;;;;;;;8.55;2.00;;;9.50;99.90;;;;;;5039658;28;20202;-85
2023/05/17 04:19:47;;;;;;;16.67;1.83;;;9.40;99.90;;;;;;5058090;28;20595;-85
2023/05/17 04:22:13;;;;;;;14.70;1.80;;;9.40;99.90;;;;;;5090082;28;20178;-86
2023/05/17 04:24:39;;;;;;;9.68;1.83;;;9.40;99.90;;;;;;5060221;28;20186;-84
2023/05/17 04:27:06;;;;;;;14.43;1.80;;;9.40;99.90;;;;;;5032721;28;20214;-86
2023/05/17 04:29:33;;;;;;;8.55;1.98;;;9.40;99.90;;;;;;5034285;28;20198;-85
2023/05/17 04:31:58;;;;;;;11.73;1.77;;;9.40;99.90;;;;;;5055046;28;22077;-85
2023/05/17 04:34:25;;;;;;;11.80;1.92;;;9.50;99.90;;;;;;5072721;28;21100;-85
2023/05/17 04:36:52;;;;;;;14.10;2.00;;;9.40;99.90;;;;;;5068328;28;20186;-84
2023/05/17 04:39:19;;;;;;;8.80;1.98;;;9.40;99.90;;;;;;5057709;28;20193;-84
2023/05/17 04:41:45;;;;;;;15.77;2.05;;;9.50;99.90;;;;;;5039125;28;20684;-84
2023/05/17 04:44:14;;;;;;;14.57;2.13;;;9.50;99.90;;;;;;5082160;28;20197;-84
2023/05/17 04:46:42;;;;;;;15.38;2.30;;;9.50;99.90;;;;;;5061185;28;20281;-84
2023/05/17 04:49:09;;;;;;;13.00;2.15;;;9.50;99.90;;;;;;5066742;28;20184;-85
2023/05/17 04:51:35;;;;;;;12.40;1.67;;;9.50;99.90;;;;;;5073001;28;20189;-87
2023/05/17 04:54:05;;;;;;;9.15;1.85;;;9.50;99.90;;;;;;5087430;28;20186;-85
2023/05/17 04:56:33;;;;;;;10.27;1.73;;;9.60;99.90;;;;;;5091116;28;20186;-84
2023/05/17 04:58:59;;;;;;;11.30;2.00;;;9.60;99.90;;;;;;5074168;28;20205;-84
2023/05/17 05:01:25;;;;;;;15.20;1.70;;;9.60;99.90;;;;;;5071218;28;20646;-85
2023/05/17 05:03:51;;;;;;;12.25;1.77;;;9.60;99.90;;;;;;5068799;28;20197;-84
2023/05/17 05:06:17;;;;;;;10.82;1.70;;;9.70;99.90;;;;;;5050492;28;20189;-82
2023/05/17 05:08:43;;;;;;;13.25;1.98;;;9.70;99.90;;;;;;5070350;28;20221;-86
2023/05/17 05:11:11;;;;;;;9.23;2.00;;;9.70;99.90;;;;;;5058772;28;20190;-86
2023/05/17 05:13:37;;;;;;;8.80;1.60;;;9.80;99.90;;;;;;5071162;28;20243;-86
2023/05/17 05:16:05;;;;;;;9.43;1.70;;;9.80;99.90;;;;;;5052685;28;20192;-84
2023/05/17 05:18:31;;;;;;;14.40;2.05;;;9.80;99.90;;;;;;5053457;28;20191;-86
2023/05/17 05:20:58;;;;;;;11.75;1.70;;;9.80;99.90;;;;;;5069013;28;20179;-86
2023/05/17 05:23:24;;;;;;;14.88;2.15;;;9.80;99.90;;;;;;5064371;28;20589;-86
2023/05/17 05:25:50;;;;;;;13.73;1.85;;;9.80;99.90;;;;;;5045269;28;20183;-86
2023/05/17 05:28:17;;;;;;;13.60;1.95;;;9.90;99.90;;;;;;5070304;28;20217;-87
2023/05/17 05:30:43;;;;;;;11.40;2.47;;;9.90;99.90;;;;;;5073505;28;20273;-86
2023/05/17 05:33:10;;;;;;;14.65;1.95;;;9.90;99.90;;;;;;5072179;28;20306;-85
2023/05/17 05:35:36;;;;;;;18.63;2.30;;;9.90;99.90;;;;;;5071608;28;20190;-86
2023/05/17 05:38:02;;;;;;;13.82;2.50;;;9.90;99.90;;;;;;5056118;28;20242;-86
2023/05/17 05:40:28;;;;;;;17.48;2.58;;;9.90;99.90;;;;;;5056332;28;20182;-85
2023/05/17 05:42:55;;;;;;;19.05;2.58;;;9.90;99.90;;;;;;5066751;28;20178;-85
2023/05/17 05:45:21;;;;;;;14.57;2.75;;;9.90;99.90;;;;;;5067146;28;20183;-85
2023/05/17 05:47:48;;;;;;;10.80;2.15;;;9.90;99.90;;;;;;5090139;28;20592;-86
2023/05/17 05:50:14;;;;;;;15.80;2.55;;;10.00;99.90;;;;;;5056000;28;20184;-85
2023/05/17 05:52:42;;;;;;;29.02;2.88;;;10.00;99.90;;;;;;5069063;28;20190;-86
2023/05/17 05:55:08;;;;;;;16.65;2.92;;;10.00;99.90;;;;;;5071369;28;20189;-87
2023/05/17 05:57:34;;;;;;;14.27;2.67;;;10.10;99.90;;;;;;5056256;28;20235;-85
2023/05/17 06:00:00;;;;;;;17.38;2.40;;;10.00;99.90;;;;;;5067778;28;20183;-84
2023/05/17 06:02:26;;;;;;;16.50;2.60;;;10.20;99.90;;;;;;5053830;28;20186;-84
2023/05/17 06:04:51;;;;;;;13.85;2.83;;;10.20;99.90;;;;;;5062944;28;20707;-84
2023/05/17 06:07:17;;;;;;;17.45;2.78;;;10.30;99.90;;;;;;5057118;28;20695;-85
2023/05/17 06:09:43;;;;;;;14.68;2.95;;;10.40;99.90;;;;;;5084704;28;20186;-84
2023/05/17 06:12:09;;;;;;;15.80;2.75;;;10.50;99.90;;;;;;5044075;28;20646;-85
2023/05/17 06:14:36;;;;;;;12.10;2.80;;;10.50;99.90;;;;;;5076466;28;20190;-85
2023/05/17 06:17:02;;;;;;;14.65;3.25;;;10.50;99.90;;;;;;5090648;28;20254;-85
2023/05/17 06:19:28;;;;;;;13.73;3.05;;;10.60;99.90;;;;;;5074470;28;20193;-85
2023/05/17 06:21:53;;;;;;;15.80;2.67;;;10.60;99.90;;;;;;5075421;28;20617;-85
2023/05/17 06:24:19;;;;;;;17.58;2.85;;;10.60;99.90;;;;;;5091305;28;20217;-85
2023/05/17 06:26:46;;;;;;;20.02;3.15;;;10.60;99.90;;;;;;5093697;28;20185;-86
2023/05/17 06:29:12;;;;;;;22.15;2.95;;;10.60;99.90;;;;;;5075396;28;20674;-86
2023/05/17 06:31:37;;;;;;;15.68;3.33;;;10.60;99.90;;;;;;5039794;28;20185;-85
2023/05/17 06:34:03;;;;;;;18.75;2.55;;;10.60;99.90;;;;;;5073715;28;20233;-91
2023/05/17 06:36:31;;;;;;;20.35;2.92;;;10.60;99.90;;;;;;5076024;28;20559;-84
2023/05/17 06:38:57;;;;;;;19.52;2.80;;;10.60;99.90;;;;;;5091249;28;20251;-85
2023/05/17 06:41:23;;;;;;;23.52;2.95;;;10.60;99.90;;;;;;5053624;28;20667;-85
2023/05/17 06:43:48;;;;;;;20.77;3.08;;;10.60;99.90;;;;;;5081164;28;20717;-85
2023/05/17 06:46:14;;;;;;;15.60;3.35;;;10.50;99.90;;;;;;5039588;28;20554;-85
2023/05/17 06:48:40;;;;;;;21.73;2.95;;;10.50;99.90;;;;;;5042051;28;20216;-84
2023/05/17 06:51:06;;;;;;;20.75;3.17;;;10.50;99.90;;;;;;5073517;28;20190;-85
2023/05/17 06:53:31;;;;;;;21.33;3.10;;;10.50;99.90;;;;;;5088447;28;20579;-86
2023/05/17 06:55:57;;;;;;;19.98;3.17;;;10.50;99.90;;;;;;5055309;28;20279;-84
2023/05/17 06:58:23;;;;;;;14.80;2.63;;;10.60;99.90;;;;;;5074779;28;20734;-85
2023/05/17 07:00:49;;;;;;;22.33;2.80;;;10.60;99.90;;;;;;5073448;28;20812;-84
2023/05/17 07:03:14;;;;;;;17.80;2.75;;;10.60;99.90;;;;;;5054125;28;20182;-84
2023/05/17 07:05:40;;;;;;;15.13;2.97;;;10.70;99.90;;;;;;5056591;28;20174;-85
2023/05/17 07:08:06;;;;;;;13.50;2.40;;;10.70;99.90;;;;;;5088606;28;20213;-86
2023/05/17 07:10:32;;;;;;;19.65;2.58;;;10.80;99.90;;;;;;5090643;28;20705;-84
2023/05/17 07:12:58;;;;;;;14.10;2.70;;;10.80;99.90;;;;;;5053356;28;20174;-85
2023/05/17 07:15:24;;;;;;;14.13;2.53;;;10.80;99.90;;;;;;5064376;28;20267;-86
2023/05/17 07:17:49;;;;;;;13.32;2.40;;;10.90;99.90;;;;;;5085335;28;20220;-85
2023/05/17 07:20:15;;;;;;;13.00;2.30;;;10.90;99.90;;;;;;5059203;28;20179;-84
2023/05/17 07:22:44;;;;;;;13.85;2.63;;;11.00;99.90;;;;;;5075897;28;20186;-85
2023/05/17 07:25:09;;;;;;;16.20;2.90;;;11.00;99.90;;;;;;5070887;28;20235;-86
2023/05/17 07:27:35;;;;;;;13.32;2.70;;;11.10;99.90;;;;;;5076134;28;20213;-85
2023/05/17 07:30:02;;;;;;;20.35;3.00;;;11.20;99.90;;;;;;5055835;28;20186;-86
2023/05/17 07:32:28;;;;;;;15.32;3.42;;;11.20;99.90;;;;;;5091508;28;20210;-85
2023/05/17 07:34:53;;;;;;;22.30;3.17;;;11.30;99.90;;;;;;5087188;28;20257;-85
2023/05/17 07:37:19;;;;;;;16.10;2.65;;;11.30;99.90;;;;;;5042398;28;20542;-84
2023/05/17 07:45:23;;;;;;;14.73;2.25;;;11.40;99.90;;;;;;5357478;23;20310;-82
2023/05/17 07:47:48;;;;;;;23.42;2.60;;;11.40;99.90;;;;;;4936320;29;20571;-82
2023/05/17 07:50:14;;;;;;;19.67;2.85;;;11.50;99.90;;;;;;4934138;29;20223;-82
2023/05/17 07:52:40;;;;;;;16.23;2.67;;;11.50;99.90;;;;;;4917775;29;20206;-82
2023/05/17 07:55:06;;;;;;;14.32;2.38;;;11.60;99.90;;;;;;4917102;29;20188;-83
2023/05/17 07:57:32;;;;;;;17.40;2.42;;;11.60;99.90;;;;;;4924543;29;20314;-83
2023/05/17 07:59:58;;;;;;;16.27;2.35;;;11.60;99.90;;;;;;4935788;29;20226;-83
2023/05/17 08:02:23;;;;;;;14.50;2.90;;;11.70;99.90;;;;;;4932092;29;20191;-83
2023/05/17 08:04:49;;;;;;;14.93;2.55;;;11.70;99.90;;;;;;4932817;29;20191;-83
2023/05/17 08:07:15;;;;;;;16.95;2.80;;;11.60;99.90;;;;;;4936733;29;20310;-83
2023/05/17 08:09:43;;;;;;;11.05;2.42;;;11.70;99.90;;;;;;4919662;29;20203;-83
2023/05/17 08:12:08;;;;;;;14.88;2.67;;;11.70;99.90;;;;;;4951220;29;20191;-83
2023/05/17 08:14:34;;;;;;;14.68;2.75;;;11.80;99.90;;;;;;4934413;29;20202;-82
2023/05/17 08:17:00;;;;;;;16.67;2.70;;;11.80;99.90;;;;;;4945454;29;20239;-82
2023/05/17 08:19:26;;;;;;;14.35;2.58;;;11.80;99.90;;;;;;4931150;29;20326;-82
2023/05/17 08:21:51;;;;;;;14.52;2.92;;;12.00;99.90;;;;;;4919379;29;20242;-82
2023/05/17 08:24:17;;;;;;;14.88;2.03;;;12.00;99.90;;;;;;4937342;29;20183;-82
2023/05/17 08:26:43;;;;;;;14.00;2.38;;;12.10;99.90;;;;;;4935018;29;20191;-83
2023/05/17 08:29:09;;;;;;;14.05;2.55;;;12.20;99.40;;;;;;4915959;29;20190;-82
2023/05/17 08:31:35;;;;;;;13.80;2.53;;;12.30;98.70;;;;;;4936161;29;20206;-82
2023/05/17 08:34:02;;;;;;;9.90;2.00;;;12.40;98.30;;;;;;4934380;29;20560;-83
2023/05/17 08:36:27;;;;;;;15.55;2.40;;;12.50;97.40;;;;;;4918730;29;20283;-82
2023/05/17 08:38:53;;;;;;;13.38;2.25;;;12.60;97.10;;;;;;4932651;29;20187;-83
2023/05/17 08:41:20;;;;;;;12.52;2.30;;;12.60;96.30;;;;;;4934591;29;20215;-83
2023/05/17 08:43:47;;;;;;;8.98;2.03;;;12.70;96.20;;;;;;4936322;29;20195;-83
2023/05/17 08:46:14;;;;;;;6.53;1.90;;;12.80;95.60;;;;;;4935841;29;20223;-83
2023/05/17 08:48:49;;;;;;;8.73;2.10;;;13.00;94.80;;;;;;4935357;29;20223;-83
2023/05/17 08:51:16;;;;;;;12.88;1.98;;;13.10;94.40;;;;;;4929860;29;20179;-83
2023/05/17 08:53:45;;;;;;;8.77;2.05;;;13.30;93.80;;;;;;4917977;29;20211;-84
2023/05/17 08:56:13;;;;;;;7.10;2.28;;;13.30;93.50;;;;;;4934846;29;20215;-82
2023/05/17 08:58:41;;;;;;;9.60;1.95;;;13.30;92.90;;;;;;4933504;29;20195;-83
2023/05/17 09:01:08;;;;;;;10.45;2.00;;;13.30;93.00;;;;;;4931155;29;20257;-82
2023/05/17 09:03:35;;;;;;;9.90;2.20;;;13.30;93.00;;;;;;4935518;29;20206;-83
2023/05/17 09:06:02;;;;;;;12.73;2.13;;;13.30;93.20;;;;;;4935635;29;20192;-83
2023/05/17 09:08:29;;;;;;;14.75;2.35;;;13.20;93.20;;;;;;4934400;29;20278;-83
2023/05/17 09:11:01;;;;;;;11.73;1.90;;;13.20;93.60;;;;;;4929982;29;20191;-83
2023/05/17 09:13:27;;;;;;;13.55;2.30;;;13.20;93.70;;;;;;4929951;29;20622;-83
2023/05/17 09:15:53;;;;;;;13.93;2.75;;;13.20;93.50;;;;;;4916558;29;20218;-83
2023/05/17 09:18:27;;;;;;;9.88;2.08;;;13.10;93.70;;;;;;4934994;29;20242;-82
2023/05/17 09:20:53;;;;;;;11.18;2.25;;;13.10;94.00;;;;;;4932631;29;20183;-82
2023/05/17 09:23:20;;;;;;;16.17;2.40;;;13.10;93.80;;;;;;4934172;29;20179;-82
2023/05/17 09:25:47;;;;;;;12.27;2.20;;;13.10;93.60;;;;;;4934136;29;20311;-81
2023/05/17 09:28:13;;;;;;;9.20;1.90;;;13.20;93.50;;;;;;4934263;29;20688;-83
2023/05/17 09:30:40;;;;;;;10.15;2.05;;;13.30;93.40;;;;;;4932857;29;20222;-81
2023/05/17 09:33:08;;;;;;;10.68;1.73;;;13.50;93.00;;;;;;4931764;29;20198;-83
2023/05/17 09:35:35;;;;;;;10.35;2.20;;;13.60;92.50;;;;;;4932092;29;20199;-82
2023/05/17 09:38:14;;;;;;;12.02;2.20;;;13.70;92.00;;;;;;4927465;29;20200;-81
2023/05/17 09:40:43;;;;;;;9.88;2.08;;;13.80;91.70;;;;;;4927676;29;20704;-82
2023/05/17 09:43:10;;;;;;;11.18;2.30;;;13.70;91.60;;;;;;4929424;29;20258;-81
2023/05/17 09:45:36;;;;;;;12.98;2.15;;;13.70;91.40;;;;;;4939191;29;20254;-82
2023/05/17 09:48:12;;;;;;;10.63;1.80;;;13.70;91.10;;;;;;4941586;29;20207;-82
2023/05/17 09:50:46;;;;;;;8.65;2.10;;;13.60;91.10;;;;;;4938793;29;20198;-82
2023/05/17 09:53:32;;;;;;;9.13;2.60;;;13.50;90.70;;;;;;4938462;29;20171;-84
2023/05/17 09:56:04;;;;;;;7.57;1.98;;;13.50;90.80;;;;;;4948916;29;20641;-82
2023/05/17 09:58:35;;;;;;;10.35;2.15;;;13.60;90.50;;;;;;4938318;29;20219;-82
2023/05/17 10:01:03;;;;;;;9.73;3.00;;;13.60;90.00;;;;;;4935444;29;20263;-81
2023/05/17 10:03:32;;;;;;;8.90;1.70;;;13.80;89.60;;;;;;4938289;29;20190;-83
2023/05/17 10:06:10;;;;;;;9.50;2.28;;;14.10;89.00;;;;;;4937102;29;20179;-81
2023/05/17 10:08:43;;;;;;;9.90;1.95;;;14.30;87.60;;;;;;4938341;29;20318;-82
2023/05/17 10:11:09;;;;;;;12.00;2.22;;;14.40;86.80;;;;;;4937904;29;20179;-82
2023/05/17 10:13:54;;;;;;;10.63;2.15;;;14.40;86.30;;;;;;4938370;29;20181;-82
2023/05/17 10:16:22;;;;;;;8.45;2.03;;;14.40;85.70;;;;;;4933212;29;20230;-85
2023/05/17 10:18:48;;;;;;;6.60;2.13;;;14.30;85.60;;;;;;4936350;29;20657;-84
2023/05/17 10:21:16;;;;;;;8.32;1.95;;;14.30;86.50;;;;;;4938403;29;20187;-83
2023/05/17 10:23:43;;;;;;;10.38;2.13;;;14.20;86.20;;;;;;4926876;29;20188;-82
2023/05/17 10:26:09;;;;;;;7.03;1.90;;;14.20;86.20;;;;;;4933514;29;20317;-85
2023/05/17 10:28:36;;;;;;;7.15;1.98;;;14.20;86.20;;;;;;4935009;29;20358;-82
2023/05/17 10:31:03;;;;;;;5.90;2.00;;;14.20;85.40;;;;;;4953082;29;20294;-84
2023/05/17 10:33:31;;;;;;;6.88;1.90;;;14.20;84.80;;;;;;4937992;29;20179;-82
2023/05/17 10:35:58;;;;;;;8.73;1.70;;;14.20;84.00;;;;;;4935868;29;20202;-83
2023/05/17 10:38:26;;;;;;;10.80;2.00;;;14.10;83.60;;;;;;4934909;29;20259;-85
2023/05/17 10:40:53;;;;;;;10.88;2.08;;;14.10;83.50;;;;;;4948160;29;20180;-83
2023/05/17 10:43:19;;;;;;;8.85;2.08;;;14.10;83.00;;;;;;4933802;29;20274;-83
2023/05/17 10:45:45;;;;;;;11.93;2.55;;;14.20;83.80;;;;;;4952473;29;20286;-82
2023/05/17 10:48:15;;;;;;;14.57;2.03;;;14.20;84.10;;;;;;4937889;29;20708;-83
2023/05/17 10:50:45;;;;;;;10.52;2.17;;;14.20;84.60;;;;;;4938103;29;20187;-83
2023/05/17 10:53:11;;;;;;;13.05;2.22;;;14.20;85.20;;;;;;4936032;29;20179;-82
2023/05/17 10:55:38;;;;;;;15.25;2.70;;;14.20;85.90;;;;;;4932420;29;20198;-83
2023/05/17 10:58:10;;;;;;;13.48;2.20;;;14.10;86.10;;;;;;4937021;29;20183;-84
2023/05/17 11:00:48;;;;;;;8.90;2.28;;;14.20;86.50;;;;;;4951130;29;20187;-84
2023/05/17 11:03:25;;;;;;;11.80;1.90;;;14.30;87.00;;;;;;4937638;29;20191;-83
2023/05/17 11:06:09;;;;;;;8.23;1.75;;;14.40;84.90;;;;;;4929695;29;20239;-82
2023/05/17 11:08:36;;;;;;;11.55;2.00;;;14.50;83.30;;;;;;4933670;29;20219;-83
2023/05/17 11:11:11;;;;;;;11.13;2.30;;;14.60;82.70;;;;;;4936754;29;20199;-84
2023/05/17 11:13:52;;;;;;;10.40;2.10;;;14.60;81.90;;;;;;4933595;29;20184;-83
2023/05/17 11:16:22;;;;;;;6.85;1.70;;;14.60;81.50;;;;;;4933924;29;20597;-83
2023/05/17 11:18:51;;;;;;;9.20;2.10;;;14.50;81.40;;;;;;4937174;29;20209;-83
2023/05/17 11:21:18;;;;;;;10.68;1.80;;;14.60;81.20;;;;;;4928519;29;20180;-83
2023/05/17 11:23:46;;;;;;;7.38;2.17;;;14.60;80.90;;;;;;4918311;29;20183;-84
2023/05/17 11:26:28;;;;;;;5.60;1.60;;;14.70;80.00;;;;;;4926769;29;20222;-84
2023/05/17 11:29:06;;;;;;;12.75;2.00;;;14.80;79.00;;;;;;4947785;29;20222;-84
2023/05/17 11:31:37;;;;;;;11.02;2.03;;;14.90;79.20;;;;;;4937703;29;20248;-83
2023/05/17 11:34:03;;;;;;;16.42;2.38;;;15.00;78.80;;;;;;4937637;29;20195;-83
2023/05/17 11:36:30;;;;;;;9.20;1.90;;;15.00;77.60;;;;;;4932066;29;20191;-84
2023/05/17 11:39:13;;;;;;;12.38;2.35;;;15.10;77.70;;;;;;4929890;29;20184;-83
2023/05/17 11:41:46;;;;;;;12.93;2.15;;;15.10;76.80;;;;;;4917856;29;20176;-83
2023/05/17 11:44:13;;;;;;;11.57;2.47;;;15.10;76.80;;;;;;4928376;29;20238;-82
2023/05/17 11:46:40;;;;;;;9.13;2.10;;;15.10;76.20;;;;;;4931109;29;20715;-82
2023/05/17 11:49:09;;;;;;;10.25;1.80;;;15.20;76.20;;;;;;4914914;29;20556;-82
2023/05/17 11:51:36;;;;;;;5.13;2.00;;;15.20;75.80;;;;;;4937087;29;20191;-82
2023/05/17 11:54:03;;;;;;;9.02;2.10;;;15.20;75.20;;;;;;4924088;29;20190;-82
2023/05/17 11:56:39;;;;;;;6.28;1.73;;;15.20;75.20;;;;;;4935581;29;20187;-82
2023/05/17 11:59:05;;;;;;;11.30;2.47;;;15.30;73.00;;;;;;4934159;29;20203;-83
2023/05/17 12:01:51;;;;;;;9.63;2.13;;;15.30;73.40;;;;;;4934426;29;20183;-83
2023/05/17 12:04:25;;;;;;;8.88;2.38;;;15.30;72.70;;;;;;4935208;29;20650;-81
2023/05/17 12:06:52;;;;;;;10.88;2.65;;;15.40;72.80;;;;;;4934895;29;20266;-84
2023/05/17 12:09:18;;;;;;;11.45;2.10;;;15.40;72.70;;;;;;4933355;29;20243;-83
2023/05/17 12:11:43;;;;;;;13.32;2.35;;;15.40;72.70;;;;;;4931437;29;20187;-83
2023/05/17 12:14:15;;;;;;;7.43;1.98;;;15.40;72.70;;;;;;4932625;29;20282;-83
2023/05/17 12:16:44;;;;;;;10.73;2.08;;;15.40;73.00;;;;;;4936482;29;20562;-83
2023/05/17 12:19:18;;;;;;;9.45;2.42;;;15.40;72.70;;;;;;4936940;29;20183;-83
2023/05/17 12:21:45;;;;;;;15.20;2.22;;;15.40;73.50;;;;;;4936631;29;20183;-84
2023/05/17 12:24:11;;;;;;;6.68;1.98;;;15.40;73.90;;;;;;4933721;29;20211;-84
2023/05/17 12:26:44;;;;;;;15.27;2.90;;;15.40;74.00;;;;;;4936058;29;20191;-83
2023/05/17 12:29:10;;;;;;;8.77;2.35;;;15.30;73.60;;;;;;4933781;29;20207;-83
2023/05/17 12:31:42;;;;;;;11.23;2.30;;;15.30;73.50;;;;;;4934626;29;20187;-84
2023/05/17 12:34:11;;;;;;;7.05;1.95;;;15.30;72.50;;;;;;4936015;29;20546;-83
2023/05/17 12:36:37;;;;;;;7.32;2.00;;;15.20;73.40;;;;;;4932467;29;20308;-85
2023/05/17 12:39:05;;;;;;;8.77;2.05;;;15.20;73.10;;;;;;4935401;29;20649;-83
2023/05/17 12:41:31;;;;;;;8.18;2.22;;;15.10;73.00;;;;;;4934030;29;20197;-83
2023/05/17 12:43:57;;;;;;;6.28;2.30;;;15.10;73.10;;;;;;4917592;29;20234;-83
2023/05/17 12:46:23;;;;;;;9.27;1.95;;;15.10;73.60;;;;;;4921252;29;20259;-83
2023/05/17 12:48:50;;;;;;;15.70;3.15;;;15.10;73.90;;;;;;4932326;29;20227;-82
2023/05/17 12:51:18;;;;;;;9.40;2.50;;;15.00;74.20;;;;;;4933104;29;20206;-83